Time;durP1;ratioP1;P1;durP2;ratioP2;P2;SDS_P1;SDS_P2;PMS_P1;PMS_P2;Temp;Humidity;BMP_temperature;BMP_pressure;BME280_temperature;BME280_humidity;BME280_pressure;Samples;Min_cycle;Max_cycle;Signal;HPM_P1;HPM_P2
2021/12/16 00:08:44;;;;;;;16.67;9.27;;;;;;;4.66;65.65;100582.84;5088792;28;20028;-47
2021/12/16 00:11:23;;;;;;;15.43;9.13;;;;;;;4.27;68.10;100577.72;5089004;28;20035;-48
2021/12/16 00:35:38;;;;;;;15.88;9.43;;;;;;;4.25;66.83;100592.81;5088725;28;20118;-50
2021/12/16 00:38:03;;;;;;;16.67;9.30;;;;;;;4.18;67.97;100599.63;5086880;28;20032;-49
2021/12/16 00:40:29;;;;;;;17.80;9.48;;;;;;;4.14;67.38;100599.06;5086930;28;20019;-48
2021/12/16 00:42:59;;;;;;;17.95;9.43;;;;;;;4.25;67.61;100600.72;5088315;28;20024;-49
2021/12/16 00:45:57;;;;;;;17.75;9.23;;;;;;;4.09;67.30;100596.03;5086158;28;20070;-50
2021/12/16 00:56:01;;;;;;;17.85;10.23;;;;;;;4.13;67.10;100555.25;5087999;28;20027;-49
2021/12/16 00:58:36;;;;;;;18.83;9.43;;;;;;;3.92;67.93;100577.34;5091404;28;20456;-48
2021/12/16 01:01:10;;;;;;;18.33;9.77;;;;;;;4.11;67.30;100591.44;5090117;28;20132;-49
2021/12/16 01:03:49;;;;;;;17.05;9.80;;;;;;;4.21;66.77;100592.28;5090567;28;20028;-48
2021/12/16 01:34:12;;;;;;;18.40;10.32;;;;;;;3.69;68.67;100571.53;5091616;28;20077;-49
2021/12/16 01:36:56;;;;;;;19.90;9.85;;;;;;;3.66;69.05;100560.44;5092025;28;20077;-38
2021/12/16 01:47:44;;;;;;;18.48;10.15;;;;;;;3.81;69.26;100559.06;5092231;28;20502;-38
2021/12/16 01:51:17;;;;;;;21.15;10.85;;;;;;;3.82;68.40;100557.25;5092290;28;20020;-38
2021/12/16 01:53:24;;;;;;;21.17;10.30;;;;;;;3.71;68.34;100558.22;5087049;28;20043;-38
2021/12/16 01:56:11;;;;;;;22.98;10.73;;;;;;;3.90;67.85;100549.47;5092187;28;20016;-37
2021/12/16 01:58:36;;;;;;;19.30;9.77;;;;;;;4.16;69.21;100554.16;5091696;28;20490;-37
2021/12/16 02:01:19;;;;;;;19.10;9.30;;;;;;;3.61;68.11;100555.56;5092337;28;20047;-38
2021/12/16 02:03:52;;;;;;;19.65;10.57;;;;;;;3.66;68.31;100558.63;5092175;28;20418;-37
2021/12/16 02:08:47;;;;;;;20.38;10.25;;;;;;;3.74;68.16;100541.31;5090848;28;20020;-37
2021/12/16 02:11:29;;;;;;;20.23;9.60;;;;;;;3.52;68.20;100546.72;5092166;28;20047;-38
2021/12/16 02:34:03;;;;;;;19.00;10.23;;;;;;;3.71;68.07;100545.03;5091557;28;20376;-38
2021/12/16 02:36:13;;;;;;;;;;;;;;;3.77;66.79;100541.88;5089735;28;20032;-38
2021/12/16 02:38:39;;;;;;;19.35;9.10;;;;;;;3.66;67.67;100545.47;5091224;28;20260;-37
2021/12/16 02:41:04;;;;;;;19.05;9.30;;;;;;;3.33;68.58;100541.44;5091344;28;20034;-38
2021/12/16 02:48:41;;;;;;;;;;;;;;;3.43;67.79;100534.41;5091919;28;20097;-38
2021/12/16 02:51:15;;;;;;;18.75;9.18;;;;;;;3.81;66.87;100547.66;5091208;28;19908;-38
2021/12/16 02:53:45;;;;;;;21.58;9.93;;;;;;;3.61;68.18;100546.84;5090958;28;20521;-38
2021/12/16 02:56:10;;;;;;;;;;;;;;;3.52;67.87;100557.25;5091693;28;20024;-38
2021/12/16 02:58:37;;;;;;;18.83;9.95;;;;;;;3.60;67.60;100546.03;5090959;28;19915;-38
2021/12/16 03:01:28;;;;;;;18.90;9.82;;;;;;;3.27;68.44;100552.50;5089591;28;20103;-38
2021/12/16 03:03:54;;;;;;;19.33;10.18;;;;;;;3.28;69.34;100546.28;5091198;28;20024;-38
2021/12/16 03:06:20;;;;;;;19.60;10.00;;;;;;;3.90;68.07;100558.22;5090751;28;20062;-38
2021/12/16 03:08:46;;;;;;;22.38;10.50;;;;;;;3.51;67.98;100552.13;5091096;28;20024;-38
2021/12/16 03:14:06;;;;;;;19.95;9.23;;;;;;;3.00;69.15;100546.09;5090886;28;20114;-38
2021/12/16 03:21:38;;;;;;;19.15;9.20;;;;;;;3.00;68.67;100551.34;5090947;28;20039;-38
2021/12/16 03:34:39;;;;;;;21.25;10.60;;;;;;;3.04;69.53;100565.06;5090766;28;20063;-48
2021/12/16 03:37:22;;;;;;;19.67;9.93;;;;;;;3.10;69.19;100565.38;5089826;28;20023;-50
2021/12/16 03:39:56;;;;;;;21.75;10.38;;;;;;;3.19;68.94;100562.88;5090570;28;20031;-49
2021/12/16 03:42:46;;;;;;;19.30;9.60;;;;;;;2.97;69.28;100556.03;5090381;28;20181;-51
2021/12/16 03:48:22;;;;;;;20.88;9.73;;;;;;;2.96;69.06;100562.28;5090636;28;20149;-48
2021/12/16 03:50:47;;;;;;;19.70;9.88;;;;;;;2.82;69.12;100569.56;5090296;28;20162;-48
2021/12/16 03:53:16;;;;;;;20.08;9.40;;;;;;;2.46;70.91;100573.56;5088907;28;20063;-51
2021/12/16 03:55:42;;;;;;;18.13;9.75;;;;;;;2.84;69.79;100564.19;5088669;28;20036;-49
2021/12/16 03:58:07;;;;;;;20.85;9.80;;;;;;;2.85;69.47;100558.78;5090278;28;20024;-50
2021/12/16 04:00:36;;;;;;;17.88;8.57;;;;;;;2.60;69.94;100561.88;5090178;28;20032;-49
2021/12/16 04:03:01;;;;;;;19.45;9.25;;;;;;;2.56;70.13;100561.31;5090388;28;20028;-48
2021/12/16 04:05:27;;;;;;;19.75;9.73;;;;;;;2.88;69.66;100565.59;5090074;28;20071;-48
2021/12/16 04:07:53;;;;;;;20.80;10.25;;;;;;;2.79;70.08;100555.84;5090374;28;20075;-48
2021/12/16 04:10:22;;;;;;;20.30;9.85;;;;;;;2.69;69.56;100547.94;5090335;28;20032;-48
2021/12/16 04:12:50;;;;;;;19.92;10.13;;;;;;;2.52;70.41;100559.91;5088704;28;20487;-51
2021/12/16 04:15:16;;;;;;;18.02;8.82;;;;;;;2.91;69.21;100557.41;5089879;28;20031;-49
2021/12/16 04:17:41;;;;;;;15.65;8.85;;;;;;;2.50;69.78;100556.56;5090009;28;20410;-48
2021/12/16 04:20:09;;;;;;;19.35;9.93;;;;;;;2.48;70.31;100543.56;5089953;28;20122;-47
2021/12/16 04:22:38;;;;;;;18.83;8.98;;;;;;;2.60;69.52;100560.06;5090109;28;20020;-49
2021/12/16 04:25:09;;;;;;;19.08;9.43;;;;;;;2.34;70.32;100542.13;5089646;28;20487;-49
2021/12/16 04:27:35;;;;;;;20.00;9.88;;;;;;;2.43;70.48;100561.50;5089221;28;20020;-49
2021/12/16 04:30:01;;;;;;;19.85;10.40;;;;;;;2.68;69.62;100547.09;5089851;28;20027;-48
2021/12/16 04:32:26;;;;;;;22.08;10.38;;;;;;;2.72;69.24;100563.44;5093048;28;20078;-50
2021/12/16 04:34:52;;;;;;;16.05;8.30;;;;;;;2.65;68.59;100550.00;5094006;28;20410;-49
2021/12/16 04:37:18;;;;;;;18.80;8.30;;;;;;;2.50;69.50;100556.56;5093481;28;20514;-49
2021/12/16 04:39:44;;;;;;;16.75;8.90;;;;;;;2.76;69.20;100556.97;5093636;28;20028;-48
2021/12/16 04:42:15;;;;;;;20.95;10.10;;;;;;;2.49;69.74;100557.53;5093671;28;20039;-49
2021/12/16 04:44:41;;;;;;;17.42;9.15;;;;;;;2.59;70.41;100557.56;5093652;28;20020;-49
2021/12/16 04:47:07;;;;;;;20.33;9.80;;;;;;;2.77;69.05;100555.97;5093716;28;20020;-50
2021/12/16 04:49:32;;;;;;;19.70;8.88;;;;;;;2.91;68.74;100562.66;5093154;28;20085;-48
2021/12/16 04:52:00;;;;;;;17.65;9.05;;;;;;;2.84;69.44;100565.00;5093349;28;20046;-48
2021/12/16 04:54:27;;;;;;;19.33;9.77;;;;;;;2.83;68.99;100557.25;5093079;28;20031;-49
2021/12/16 04:56:53;;;;;;;17.88;8.93;;;;;;;2.69;69.65;100569.78;5092734;28;20111;-48
2021/12/16 04:59:19;;;;;;;19.27;9.40;;;;;;;2.72;69.75;100563.44;5093066;28;20137;-49
2021/12/16 05:01:47;;;;;;;14.52;7.90;;;;;;;2.70;68.90;100566.22;5093083;28;20036;-49
2021/12/16 05:04:12;;;;;;;23.23;9.23;;;;;;;2.79;69.58;100580.34;5092905;28;20466;-48
2021/12/16 05:06:38;;;;;;;16.17;8.85;;;;;;;2.89;69.11;100581.22;5093056;28;20032;-48
2021/12/16 05:09:04;;;;;;;16.77;8.77;;;;;;;2.72;69.48;100585.31;5092880;28;20028;-50
2021/12/16 05:11:32;;;;;;;19.10;9.18;;;;;;;2.82;70.14;100584.50;5092931;28;20024;-49
2021/12/16 05:13:58;;;;;;;20.45;9.70;;;;;;;2.96;69.82;100586.78;5092811;28;20483;-48
2021/12/16 05:16:24;;;;;;;17.88;9.15;;;;;;;2.93;68.14;100571.25;5093224;28;20370;-50
2021/12/16 05:18:52;;;;;;;20.05;10.18;;;;;;;3.06;68.71;100582.34;5092820;28;20592;-51
2021/12/16 05:27:04;;;;;;;17.17;9.18;;;;;;;2.89;69.32;100580.38;5070935;28;20132;-49
2021/12/16 05:29:29;;;;;;;20.38;8.82;;;;;;;2.59;69.88;100591.72;5071684;28;20440;-50
2021/12/16 05:31:55;;;;;;;20.50;9.88;;;;;;;2.87;69.26;100592.81;5072433;28;20032;-49
2021/12/16 05:34:21;;;;;;;28.58;14.38;;;;;;;2.92;69.50;100585.38;5072373;28;20032;-51
2021/12/16 05:36:47;;;;;;;35.25;18.60;;;;;;;2.92;69.02;100588.84;5071724;28;20024;-51
2021/12/16 05:39:13;;;;;;;38.05;18.27;;;;;;;2.90;68.63;100587.31;5072195;28;20080;-48
2021/12/16 05:41:39;;;;;;;19.90;10.13;;;;;;;2.69;69.62;100601.34;5072471;28;20025;-48
2021/12/16 05:44:04;;;;;;;20.88;10.07;;;;;;;2.59;69.98;100605.72;5071750;28;20029;-48
2021/12/16 05:46:30;;;;;;;19.55;9.77;;;;;;;2.89;69.89;100598.78;5071704;28;20025;-49
2021/12/16 05:48:57;;;;;;;16.63;8.75;;;;;;;2.88;68.63;100595.31;5071781;28;20036;-50
2021/12/16 05:51:25;;;;;;;23.67;10.25;;;;;;;3.61;69.41;100596.88;5071740;28;20028;-52
2021/12/16 05:53:51;;;;;;;21.20;9.77;;;;;;;2.90;68.72;100597.81;5071948;28;20029;-51
2021/12/16 05:56:17;;;;;;;18.50;8.98;;;;;;;3.09;70.51;100599.69;5083019;28;20035;-49
2021/12/16 05:58:42;;;;;;;18.95;9.52;;;;;;;2.76;69.16;100601.66;5091270;28;20030;-51
2021/12/16 06:01:11;;;;;;;59.17;23.27;;;;;;;2.95;69.51;100608.75;5091555;28;20118;-50
2021/12/16 06:03:36;;;;;;;17.80;8.90;;;;;;;3.10;68.54;100602.19;5091738;28;20071;-49
2021/12/16 06:06:02;;;;;;;17.02;8.65;;;;;;;3.23;68.92;100601.94;5089417;28;20587;-51
2021/12/16 06:08:28;;;;;;;17.95;8.40;;;;;;;3.10;68.54;100604.81;5085787;28;20356;-49
2021/12/16 06:11:12;;;;;;;16.50;8.75;;;;;;;2.90;68.36;100608.34;5071232;28;20326;-49
2021/12/16 06:13:44;;;;;;;19.00;8.68;;;;;;;3.03;68.14;100597.59;5071643;28;20154;-49
2021/12/16 06:29:35;;;;;;;16.70;8.32;;;;;;;3.13;67.67;100608.97;5091782;28;20089;-49
2021/12/16 06:32:00;;;;;;;14.07;7.22;;;;;;;2.88;67.73;100605.84;5091618;28;20020;-38
2021/12/16 06:34:26;;;;;;;17.70;8.82;;;;;;;3.15;68.35;100612.28;5091834;28;20365;-38
2021/12/16 06:36:51;;;;;;;15.98;8.40;;;;;;;3.26;68.04;100609.56;5091031;28;20475;-38
2021/12/16 06:39:17;;;;;;;21.58;11.20;;;;;;;3.56;66.83;100612.22;5091324;28;20396;-38
2021/12/16 06:41:43;;;;;;;32.55;12.23;;;;;;;3.49;67.08;100614.59;5091329;28;20431;-39
2021/12/16 06:44:18;;;;;;;23.05;11.27;;;;;;;3.69;66.71;100615.44;5089676;28;20036;-38
2021/12/16 06:46:45;;;;;;;18.40;9.23;;;;;;;3.90;66.48;100616.16;5089116;28;20028;-38
2021/12/16 06:49:13;;;;;;;21.25;10.75;;;;;;;4.06;65.17;100615.59;5089059;28;20039;-38
2021/12/16 06:51:48;;;;;;;27.52;13.18;;;;;;;3.97;65.23;100607.69;5089132;28;20114;-38
2021/12/16 06:54:21;;;;;;;16.38;8.68;;;;;;;4.26;66.48;100620.81;5087388;28;20028;-37
2021/12/16 06:57:25;;;;;;;20.77;10.75;;;;;;;4.62;63.19;100621.84;5088626;28;20028;-38
2021/12/16 06:59:47;;;;;;;18.45;8.95;;;;;;;4.77;62.19;100621.41;5088329;28;20082;-38
2021/12/16 07:02:19;;;;;;;15.00;8.27;;;;;;;6.27;70.66;100621.84;5090047;28;20435;-39
2021/12/16 07:04:46;;;;;;;18.30;9.07;;;;;;;6.63;63.35;100617.28;5089615;28;20044;-39
2021/12/16 07:07:12;;;;;;;17.48;8.45;;;;;;;8.94;59.28;100624.56;5089609;28;20106;-39
2021/12/16 07:09:38;;;;;;;15.65;8.30;;;;;;;8.70;58.80;100619.31;5089625;28;20503;-39
2021/12/16 07:12:04;;;;;;;20.58;8.25;;;;;;;8.85;52.49;100617.63;5089573;28;20036;-39
2021/12/16 07:14:36;;;;;;;12.70;7.28;;;;;;;8.77;52.15;100622.97;5089778;28;20032;-39
2021/12/16 07:17:04;;;;;;;13.15;7.90;;;;;;;8.97;52.52;100620.75;5089448;28;20063;-39
2021/12/16 07:19:29;;;;;;;13.35;7.63;;;;;;;9.00;53.26;100626.56;5088329;28;20468;-39
2021/12/16 07:21:55;;;;;;;16.50;7.95;;;;;;;9.31;50.51;100616.94;5089486;28;20054;-39
2021/12/16 07:24:20;;;;;;;32.33;16.52;;;;;;;8.66;52.70;100624.13;5089490;28;20032;-39
2021/12/16 07:26:47;;;;;;;13.43;7.57;;;;;;;8.89;51.16;100626.06;5089343;28;20533;-39
2021/12/16 07:29:12;;;;;;;17.13;7.80;;;;;;;9.74;51.71;100630.66;5089680;28;20126;-39
2021/12/16 07:31:39;;;;;;;12.90;7.80;;;;;;;9.95;50.28;100622.84;5089472;28;20422;-40
2021/12/16 07:34:05;;;;;;;14.25;7.88;;;;;;;9.06;50.13;100618.88;5089465;28;20034;-39
2021/12/16 07:36:30;;;;;;;17.42;7.65;;;;;;;9.61;49.76;100631.22;5087966;28;20043;-39
2021/12/16 07:38:56;;;;;;;14.55;7.75;;;;;;;9.68;48.92;100610.91;5089337;28;20020;-38
2021/12/16 07:41:31;;;;;;;13.07;7.50;;;;;;;9.35;48.30;100613.78;5089494;28;20024;-39
2021/12/16 07:44:09;;;;;;;13.30;7.40;;;;;;;9.55;52.03;100614.16;5089759;28;20125;-39
2021/12/16 07:46:42;;;;;;;12.75;7.43;;;;;;;9.25;50.32;100613.16;5089574;28;20130;-38
2021/12/16 07:49:09;;;;;;;16.33;7.25;;;;;;;9.58;47.66;100605.00;5088981;28;20024;-39
2021/12/16 07:51:34;;;;;;;12.65;6.97;;;;;;;9.79;48.62;100605.19;5088780;28;20086;-39
2021/12/16 07:54:00;;;;;;;13.75;7.40;;;;;;;9.16;50.29;100616.88;5087688;28;20032;-40
2021/12/16 07:56:25;;;;;;;16.33;7.90;;;;;;;8.81;49.58;100605.69;5089188;28;20024;-39
2021/12/16 07:58:51;;;;;;;13.10;7.40;;;;;;;10.42;48.28;100615.69;5089313;28;20055;-38
2021/12/16 08:01:16;;;;;;;12.88;7.50;;;;;;;10.03;46.61;100616.63;5089412;28;20376;-39
2021/12/16 08:03:43;;;;;;;13.13;8.00;;;;;;;8.99;49.01;100593.03;5089291;28;20024;-39
2021/12/16 08:06:18;;;;;;;11.82;7.38;;;;;;;8.97;55.82;100632.19;5090252;28;20056;-39
2021/12/16 08:08:44;;;;;;;10.02;6.93;;;;;;;8.65;50.20;100611.88;5083936;28;20039;-39
2021/12/16 08:11:09;;;;;;;13.15;7.20;;;;;;;7.74;52.74;100604.94;5074922;28;20051;-38
2021/12/16 08:13:35;;;;;;;15.35;7.68;;;;;;;8.10;51.42;100610.75;5092568;28;20040;-39
2021/12/16 08:16:01;;;;;;;12.43;7.22;;;;;;;7.87;52.10;100599.16;5073362;28;20028;-39
2021/12/16 08:18:27;;;;;;;12.05;7.10;;;;;;;7.59;53.75;100602.94;5072885;28;20097;-48
2021/12/16 08:20:53;;;;;;;14.23;7.90;;;;;;;7.99;52.93;100596.00;5089021;28;20028;-49
2021/12/16 08:23:18;;;;;;;12.13;6.93;;;;;;;7.78;52.76;100598.31;5086013;28;20443;-49
2021/12/16 08:25:44;;;;;;;12.65;7.07;;;;;;;7.87;53.07;100609.78;5071861;28;20160;-50
2021/12/16 08:28:10;;;;;;;11.48;6.70;;;;;;;8.30;54.48;100610.41;5071277;28;20392;-48
2021/12/16 08:30:42;;;;;;;11.63;7.03;;;;;;;8.39;51.36;100606.75;5071389;28;20058;-49
2021/12/16 08:33:10;;;;;;;11.45;7.28;;;;;;;7.99;55.37;100603.13;5071191;28;20157;-49
2021/12/16 08:35:40;;;;;;;13.07;7.05;;;;;;;7.54;53.76;100599.97;5071645;28;20033;-50
2021/12/16 08:38:05;;;;;;;13.27;7.68;;;;;;;7.99;54.31;100600.47;5071775;28;20427;-51
2021/12/16 08:40:31;;;;;;;11.18;6.80;;;;;;;7.85;53.76;100601.97;5072803;28;20028;-49
2021/12/16 08:42:56;;;;;;;12.20;6.93;;;;;;;7.11;54.26;100596.53;5084099;28;20475;-50
2021/12/16 08:45:27;;;;;;;13.43;7.07;;;;;;;6.98;55.63;100596.94;5092056;28;20069;-48
2021/12/16 08:47:53;;;;;;;13.57;7.40;;;;;;;6.82;55.74;100587.13;5092544;28;20020;-49
2021/12/16 08:50:19;;;;;;;15.00;8.27;;;;;;;7.41;55.06;100589.81;5092555;28;20064;-49
2021/12/16 08:52:45;;;;;;;14.27;7.65;;;;;;;7.22;55.07;100583.00;5092284;28;20043;-50
2021/12/16 08:55:11;;;;;;;13.43;7.55;;;;;;;7.19;55.29;100596.53;5092121;28;20024;-48
2021/12/16 08:57:37;;;;;;;14.50;7.47;;;;;;;6.67;56.85;100591.38;5092137;28;20429;-52
2021/12/16 09:00:05;;;;;;;13.93;7.63;;;;;;;6.26;57.35;100580.53;5092055;28;20043;-52
2021/12/16 09:02:31;;;;;;;13.15;7.85;;;;;;;6.60;57.47;100588.50;5092083;28;20110;-52
2021/12/16 09:04:56;;;;;;;12.18;6.95;;;;;;;6.56;57.14;100586.34;5090496;28;20044;-52
2021/12/16 09:07:22;;;;;;;16.88;7.97;;;;;;;6.94;56.80;100587.69;5091853;28;20408;-49
2021/12/16 09:09:47;;;;;;;15.70;7.72;;;;;;;6.49;57.43;100585.31;5092185;28;20055;-51
2021/12/16 09:12:38;;;;;;;15.18;8.13;;;;;;;6.22;58.90;100585.28;5092194;28;20063;-49
2021/12/16 09:15:12;;;;;;;14.32;8.07;;;;;;;6.39;58.21;100582.75;5070005;28;20573;-51
2021/12/16 09:17:37;;;;;;;14.65;8.02;;;;;;;6.93;57.89;100583.38;5070619;28;20460;-52
2021/12/16 09:20:03;;;;;;;28.35;14.63;;;;;;;7.38;56.21;100579.53;5077721;28;20064;-50
2021/12/16 09:22:29;;;;;;;13.68;7.85;;;;;;;7.30;56.30;100581.34;5091986;28;20107;-51
2021/12/16 09:24:56;;;;;;;13.23;7.38;;;;;;;7.48;55.65;100567.97;5092432;28;20388;-49
2021/12/16 09:27:22;;;;;;;16.27;8.73;;;;;;;7.46;55.34;100569.97;5092414;28;20027;-49
2021/12/16 09:29:47;;;;;;;14.98;7.90;;;;;;;7.55;55.46;100563.69;5091912;28;20082;-52
2021/12/16 09:32:13;;;;;;;15.52;8.52;;;;;;;7.61;55.40;100574.44;5092149;28;20028;-49
2021/12/16 09:34:39;;;;;;;14.77;7.68;;;;;;;7.25;55.52;100565.94;5092273;28;20020;-50
2021/12/16 09:37:05;;;;;;;13.15;7.55;;;;;;;7.40;56.03;100566.16;5090499;28;20332;-49
2021/12/16 09:39:31;;;;;;;12.88;7.25;;;;;;;6.90;57.87;100561.72;5091828;28;20028;-50
2021/12/16 09:41:57;;;;;;;13.57;7.82;;;;;;;6.81;57.86;100547.59;5091530;28;20407;-50
2021/12/16 09:44:24;;;;;;;13.13;7.82;;;;;;;6.85;57.82;100552.44;5091267;28;20035;-49
2021/12/16 09:46:50;;;;;;;13.30;7.60;;;;;;;6.91;57.83;100555.41;5091360;28;20032;-50
2021/12/16 09:49:16;;;;;;;14.40;7.45;;;;;;;7.01;57.29;100550.84;5091371;28;20123;-49
2021/12/16 09:51:43;;;;;;;15.57;7.90;;;;;;;7.76;55.13;100547.31;5091551;28;20340;-52
2021/12/16 09:54:10;;;;;;;13.48;7.80;;;;;;;7.49;55.65;100553.75;5091526;28;20107;-49
2021/12/16 09:56:36;;;;;;;12.63;7.22;;;;;;;6.83;57.53;100548.28;5091657;28;20089;-49
2021/12/16 09:59:03;;;;;;;12.95;7.65;;;;;;;6.93;56.58;100545.50;5091236;28;20080;-52
2021/12/16 10:01:29;;;;;;;14.63;7.40;;;;;;;6.85;57.38;100541.84;5090626;28;20032;-49
2021/12/16 10:03:57;;;;;;;12.27;7.40;;;;;;;6.75;58.17;100542.97;5091447;28;20086;-50
2021/12/16 10:06:22;;;;;;;11.80;6.88;;;;;;;6.74;58.05;100531.56;5091168;28;20052;-49
2021/12/16 10:08:48;;;;;;;13.23;7.70;;;;;;;7.31;57.54;100538.00;5091078;28;20047;-50
2021/12/16 10:11:15;;;;;;;14.27;7.97;;;;;;;7.04;57.33;100497.56;5091289;28;20376;-49
2021/12/16 10:19:12;;;;;;;15.13;7.68;;;;;;;8.53;53.60;100518.56;5090413;28;20077;-49
2021/12/16 10:21:41;;;;;;;29.92;15.00;;;;;;;8.56;53.08;100518.22;5090289;28;20032;-48
2021/12/16 10:24:23;;;;;;;20.07;9.73;;;;;;;8.30;54.32;100509.63;5089222;28;20157;-49
2021/12/16 10:27:09;;;;;;;15.00;8.10;;;;;;;8.74;53.26;100509.22;5090408;28;20035;-49
2021/12/16 10:29:36;;;;;;;14.38;7.53;;;;;;;8.84;52.80;100480.63;5089528;28;20031;-49
2021/12/16 10:32:02;;;;;;;15.68;8.10;;;;;;;8.52;53.94;100500.97;5088260;28;20023;-49
2021/12/16 10:34:28;;;;;;;16.00;7.18;;;;;;;8.61;52.94;100489.34;5090389;28;20089;-51
2021/12/16 10:36:54;;;;;;;13.73;7.88;;;;;;;8.95;52.76;100490.03;5088625;28;20434;-51
2021/12/16 10:39:26;;;;;;;14.02;7.55;;;;;;;9.39;51.54;100487.56;5090135;28;20034;-47
2021/12/16 10:42:00;;;;;;;12.20;7.30;;;;;;;9.15;51.05;100485.06;5090101;28;20494;-50
2021/12/16 10:44:30;;;;;;;12.50;7.15;;;;;;;8.88;52.49;100489.06;5070074;28;20028;-48
2021/12/16 10:47:04;;;;;;;11.65;6.90;;;;;;;8.70;53.62;100494.59;5069899;28;20433;-49
2021/12/16 10:49:34;;;;;;;10.85;7.15;;;;;;;8.71;52.71;100493.63;5069798;28;20043;-50
2021/12/16 10:52:10;;;;;;;10.27;5.93;;;;;;;8.64;52.91;100495.31;5083147;28;20051;-51
2021/12/16 10:54:38;;;;;;;12.68;6.80;;;;;;;8.73;52.60;100495.09;5089898;28;20024;-50
2021/12/16 10:57:09;;;;;;;11.02;6.35;;;;;;;8.53;52.42;100492.03;5088755;28;20031;-49
2021/12/16 10:59:45;;;;;;;9.77;6.47;;;;;;;8.82;51.31;100471.19;5088153;28;20024;-48
2021/12/16 11:02:18;;;;;;;10.93;6.35;;;;;;;8.66;51.50;100480.84;5090108;28;20030;-38
2021/12/16 11:04:57;;;;;;;12.00;6.55;;;;;;;8.14;54.13;100481.34;5090398;28;20056;-38
2021/12/16 11:07:30;;;;;;;12.23;6.47;;;;;;;8.53;52.58;100483.22;5090119;28;20110;-38
2021/12/16 11:09:57;;;;;;;12.15;6.75;;;;;;;9.15;51.45;100482.41;5075846;28;20048;-38
2021/12/16 11:12:25;;;;;;;9.20;6.05;;;;;;;8.71;51.60;100483.00;5069701;28;20479;-38
2021/12/16 11:15:06;;;;;;;12.63;6.32;;;;;;;8.23;53.03;100481.16;5069995;28;20025;-38
2021/12/16 11:17:40;;;;;;;11.32;6.53;;;;;;;8.41;52.54;100478.31;5101895;28;20705;-39
2021/12/16 11:20:16;;;;;;;13.00;6.80;;;;;;;8.59;52.20;100474.59;5069426;28;20473;-38
2021/12/16 11:22:42;;;;;;;9.88;6.53;;;;;;;8.74;51.91;100466.75;5069887;28;20025;-38
2021/12/16 11:25:35;;;;;;;11.05;6.57;;;;;;;8.65;52.69;100471.25;5069458;28;20066;-39
2021/12/16 11:28:19;;;;;;;13.60;6.70;;;;;;;8.98;51.67;100463.94;5068772;28;20055;-39
2021/12/16 11:31:24;;;;;;;10.13;6.65;;;;;;;9.71;49.44;100474.19;5069682;28;20052;-39
2021/12/16 11:34:04;;;;;;;9.38;6.13;;;;;;;9.11;49.91;100467.84;5066700;28;20072;-39
2021/12/16 11:36:33;;;;;;;8.90;5.25;;;;;;;9.24;48.57;100465.44;5069747;28;20035;-40
2021/12/16 11:39:09;;;;;;;7.57;4.70;;;;;;;8.67;49.95;100463.13;5069628;28;20046;-37
2021/12/16 11:41:44;;;;;;;6.40;4.25;;;;;;;8.59;49.96;100459.50;5067865;28;20033;-38
2021/12/16 11:44:24;;;;;;;9.60;4.75;;;;;;;8.78;50.25;100449.47;5068037;28;20024;-51
2021/12/16 11:46:56;;;;;;;8.30;4.30;;;;;;;9.40;49.28;100459.16;5070217;28;20051;-50
2021/12/16 11:49:21;;;;;;;6.38;4.03;;;;;;;9.02;49.32;100459.09;5089581;28;20034;-49
2021/12/16 11:52:00;;;;;;;7.97;4.00;;;;;;;8.54;50.20;100463.69;5089465;28;20126;-49
2021/12/16 11:54:36;;;;;;;5.90;3.78;;;;;;;8.52;49.64;100460.38;5089466;28;20028;-50
2021/12/16 11:57:26;;;;;;;5.25;3.80;;;;;;;8.19;50.30;100460.47;5089270;28;20509;-50
2021/12/16 11:59:55;;;;;;;9.13;4.30;;;;;;;8.36;50.07;100458.59;5083309;28;20040;-50
2021/12/16 12:02:34;;;;;;;7.03;4.18;;;;;;;8.37;49.85;100455.75;5089435;28;20110;-49
2021/12/16 12:05:19;;;;;;;8.10;4.05;;;;;;;8.26;50.67;100449.97;5089219;28;20090;-48
2021/12/16 12:07:47;;;;;;;5.50;3.70;;;;;;;8.08;51.09;100439.63;5089322;28;20474;-48
2021/12/16 12:10:14;;;;;;;5.43;3.90;;;;;;;8.31;51.35;100445.00;5088791;28;20020;-38
2021/12/16 12:12:46;;;;;;;7.63;5.18;;;;;;;8.57;50.78;100434.16;5088989;28;20024;-38
2021/12/16 12:15:13;;;;;;;7.07;4.30;;;;;;;9.28;51.02;100450.78;5088528;28;20032;-38
2021/12/16 12:17:49;;;;;;;6.57;3.90;;;;;;;8.80;49.06;100434.19;5089172;28;20028;-38
2021/12/16 12:20:14;;;;;;;5.80;4.03;;;;;;;8.66;49.84;100435.75;5088800;28;20443;-38
2021/12/16 12:22:40;;;;;;;5.03;3.45;;;;;;;8.30;49.40;100438.03;5088756;28;20031;-38
2021/12/16 12:25:05;;;;;;;4.93;3.28;;;;;;;8.21;49.75;100437.25;5089185;28;20226;-39
2021/12/16 12:27:31;;;;;;;5.80;3.40;;;;;;;8.61;49.92;100435.47;5089127;28;20110;-38
2021/12/16 12:29:58;;;;;;;5.18;3.72;;;;;;;8.85;48.81;100439.78;5089204;28;20078;-38
2021/12/16 12:32:25;;;;;;;6.10;3.80;;;;;;;8.69;49.37;100439.91;5089125;28;20036;-39
2021/12/16 12:35:25;;;;;;;5.72;3.58;;;;;;;8.57;49.20;100434.16;5087874;28;20614;-38
2021/12/16 12:37:53;;;;;;;6.63;4.05;;;;;;;8.11;49.21;100415.41;5084414;28;20040;-38
2021/12/16 12:40:28;;;;;;;7.85;3.60;;;;;;;8.26;49.34;100440.19;5088919;28;20024;-38
2021/12/16 12:42:54;;;;;;;7.07;4.00;;;;;;;8.45;48.96;100438.19;5089145;28;20024;-38
2021/12/16 12:45:29;;;;;;;5.97;4.18;;;;;;;8.66;49.18;100440.22;5088867;28;20028;-39
2021/12/16 12:47:56;;;;;;;6.25;4.22;;;;;;;8.29;50.49;100450.47;5089041;28;20131;-39
2021/12/16 12:50:33;;;;;;;5.57;3.97;;;;;;;8.09;50.13;100454.50;5088809;28;20020;-38
2021/12/16 12:53:08;;;;;;;6.32;3.97;;;;;;;8.14;50.96;100445.06;5089997;28;20570;-39
2021/12/16 12:55:34;;;;;;;5.90;4.05;;;;;;;8.12;50.64;100452.34;5090682;28;20032;-38
2021/12/16 12:58:13;;;;;;;6.68;4.57;;;;;;;8.22;50.62;100449.50;5092575;28;20136;-38
2021/12/16 13:00:39;;;;;;;6.50;4.07;;;;;;;8.53;50.29;100456.69;5092525;28;20028;-38
2021/12/16 13:03:16;;;;;;;7.10;4.15;;;;;;;8.37;50.50;100453.09;5092672;28;20284;-38
2021/12/16 13:05:57;;;;;;;6.15;3.92;;;;;;;8.01;51.23;100458.00;5091731;28;20055;-38
2021/12/16 13:08:38;;;;;;;;;;;;;;;8.60;49.30;100457.66;5091239;28;20028;-38
2021/12/16 13:11:10;;;;;;;6.57;3.70;;;;;;;8.18;51.18;100456.16;5092675;28;19962;-38
2021/12/16 13:13:46;;;;;;;6.32;4.00;;;;;;;8.33;50.71;100464.22;5092525;28;20270;-38
2021/12/16 13:27:42;;;;;;;8.77;4.95;;;;;;;8.16;51.64;100444.88;5091505;28;20034;-38
2021/12/16 13:32:33;;;;;;;7.32;4.55;;;;;;;7.84;52.02;100443.97;5091771;28;20138;-39
2021/12/16 13:35:22;;;;;;;6.70;4.00;;;;;;;7.80;52.11;100446.13;5092038;28;20111;-38
2021/12/16 13:37:52;;;;;;;5.43;4.05;;;;;;;8.26;51.15;100455.28;5091162;28;20076;-39
2021/12/16 13:40:19;;;;;;;8.20;4.40;;;;;;;8.30;50.71;100453.94;5090954;28;20149;-38
2021/12/16 13:42:55;;;;;;;9.20;4.28;;;;;;;7.71;51.79;100460.41;5091299;28;20024;-39
2021/12/16 13:45:38;;;;;;;6.55;4.28;;;;;;;7.87;51.85;100456.88;5091519;28;20107;-38
2021/12/16 14:05:03;;;;;;;9.25;4.18;;;;;;;7.76;54.22;100454.59;5091491;28;20052;-38
2021/12/16 14:08:02;;;;;;;7.75;4.25;;;;;;;7.58;52.52;100452.94;5091866;28;20031;-39
2021/12/16 14:10:55;;;;;;;6.68;4.15;;;;;;;7.36;52.89;100449.13;5079459;28;20088;-38
2021/12/16 14:16:22;;;;;;;8.70;4.72;;;;;;;7.22;53.38;100426.78;5091683;28;20047;-39
2021/12/16 14:46:06;;;;;;;8.82;4.78;;;;;;;6.46;55.69;100456.88;5089781;28;20065;-51
2021/12/16 14:48:35;;;;;;;8.13;4.78;;;;;;;6.36;55.93;100454.38;5087274;28;20035;-51
2021/12/16 14:51:09;;;;;;;7.40;5.00;;;;;;;5.86;58.12;100455.91;5088574;28;20103;-48
2021/12/16 14:53:40;;;;;;;8.00;4.88;;;;;;;6.24;56.17;100472.34;5090114;28;20019;-50
2021/12/16 14:56:37;;;;;;;7.72;4.65;;;;;;;6.24;55.99;100460.91;5083931;28;20077;-50
2021/12/16 14:59:05;;;;;;;12.63;4.90;;;;;;;6.07;56.35;100465.28;5080799;28;20459;-52
2021/12/16 15:01:42;;;;;;;8.77;4.78;;;;;;;5.90;57.31;100464.31;5087141;28;20057;-48
2021/12/16 15:04:09;;;;;;;9.30;4.53;;;;;;;5.79;57.21;100472.50;5089378;28;20464;-48
2021/12/16 15:06:52;;;;;;;8.25;5.35;;;;;;;5.53;58.24;100462.75;5089426;28;20048;-48
2021/12/16 15:09:27;;;;;;;8.52;5.00;;;;;;;5.76;58.04;100476.28;5087978;28;20024;-50